Time,TemperatureF,DewpointF,PressureIn,WindDirection,WindDirectionDegrees,WindSpeedMPH,WindSpeedGustMPH,Humidity,HourlyPrecipIn,Conditions,Clouds,dailyrainin,SoftwareType,DateUTC
2013-11-02 00:04:00,48.1,39.5,30.03,NNW,340,0.0,0.0,72,0.00,CLR,,0.00,WeatherDisplay:10.37,2013-11-02 07:04:00,
2013-11-02 00:09:00,48.7,40.1,30.03,North,4,2.3,2.3,72,0.00,CLR,,0.00,WeatherDisplay:10.37,2013-11-02 07:09:00,
2013-11-02 00:14:00,49.2,40.2,30.03,North,4,1.2,1.2,71,0.00,CLR,,0.00,WeatherDisplay:10.37,2013-11-02 07:14:00,
2013-11-02 00:19:00,49.1,39.7,30.03,North,4,0.0,0.0,70,0.00,CLR,,0.00,WeatherDisplay:10.37,2013-11-02 07:19:00,
2013-11-02 00:24:00,49.0,40.0,30.03,North,4,0.0,0.0,71,0.00,CLR,,0.00,WeatherDisplay:10.37,2013-11-02 07:24:00,
2013-11-02 00:29:00,49.1,40.1,30.03,North,4,1.2,1.2,71,0.00,CLR,,0.00,WeatherDisplay:10.37,2013-11-02 07:29:00,
2013-11-02 00:34:00,49.3,40.3,30.03,North,4,1.2,1.2,71,0.00,CLR,,0.00,WeatherDisplay:10.37,2013-11-02 07:34:00,
2013-11-02 00:39:00,49.2,39.8,30.03,North,4,2.3,2.3,70,0.00,CLR,,0.00,WeatherDisplay:10.37,2013-11-02 07:39:00,
2013-11-02 00:44:00,48.7,39.7,30.03,North,1,2.3,2.3,71,0.00,CLR,,0.00,WeatherDisplay:10.37,2013-11-02 07:44:00,
2013-11-02 00:49:00,48.6,39.6,30.03,North,1,0.0,0.0,71,0.00,CLR,,0.00,WeatherDisplay:10.37,2013-11-02 07:49:00,
2013-11-02 00:54:00,48.2,39.2,30.02,North,1,0.0,0.0,71,0.00,CLR,,0.00,WeatherDisplay:10.37,2013-11-02 07:54:00,
2013-11-02 00:59:00,47.9,39.7,30.02,North,1,1.2,1.2,73,0.00,CLR,,0.00,WeatherDisplay:10.37,2013-11-02 07:59:00,
2013-11-02 01:04:00,47.6,39.7,30.02,North,1,1.2,1.2,74,0.00,CLR,,0.00,WeatherDisplay:10.37,2013-11-02 08:04:00,
2013-11-02 01:09:00,47.9,40.0,30.02,North,1,0.0,0.0,74,0.00,CLR,,0.00,WeatherDisplay:10.37,2013-11-02 08:09:00,
2013-11-02 01:14:00,47.8,39.9,30.02,North,1,1.2,1.2,74,0.00,CLR,,0.00,WeatherDisplay:10.37,2013-11-02 08:14:00,
2013-11-02 01:19:00,47.7,40.5,30.03,North,1,1.2,1.2,76,0.00,CLR,,0.00,WeatherDisplay:10.37,2013-11-02 08:19:00,
2013-11-02 01:24:00,47.4,39.9,30.03,North,1,1.2,1.2,75,0.00,CLR,,0.00,WeatherDisplay:10.37,2013-11-02 08:24:00,
2013-11-02 01:29:00,47.0,39.8,30.03,North,1,1.2,1.2,76,0.00,CLR,,0.00,WeatherDisplay:10.37,2013-11-02 08:29:00,
2013-11-02 01:34:00,47.2,40.4,30.03,NE,54,2.0,2.0,77,0.00,CLR,,0.00,WeatherDisplay:10.37,2013-11-02 08:34:00,
2013-11-02 01:39:00,46.9,39.7,30.03,ENE,67,3.5,3.5,76,0.00,CLR,,0.00,WeatherDisplay:10.37,2013-11-02 08:39:00,
2013-11-02 01:44:00,47.4,40.2,30.03,ENE,71,2.3,2.3,76,0.00,CLR,,0.00,WeatherDisplay:10.37,2013-11-02 08:44:00,
2013-11-02 01:49:00,47.4,39.9,30.03,NE,52,1.2,1.2,75,0.00,CLR,,0.00,WeatherDisplay:10.37,2013-11-02 08:49:00,
2013-11-02 01:54:00,47.6,40.4,30.03,NE,53,1.2,1.2,76,0.00,CLR,,0.00,WeatherDisplay:10.37,2013-11-02 08:54:00,
2013-11-02 01:59:00,47.5,40.0,30.03,NE,53,0.0,0.0,75,0.00,CLR,,0.00,WeatherDisplay:10.37,2013-11-02 08:59:00,
2013-11-02 02:04:00,47.2,40.0,30.03,NE,52,0.0,0.0,76,0.00,CLR,,0.00,WeatherDisplay:10.37,2013-11-02 09:04:00,
2013-11-02 02:09:00,47.1,39.9,30.03,NE,53,0.0,0.0,76,0.00,CLR,,0.00,WeatherDisplay:10.37,2013-11-02 09:09:00,
2013-11-02 02:14:00,46.9,39.7,30.03,NE,52,1.2,1.2,76,0.00,CLR,,0.00,WeatherDisplay:10.37,2013-11-02 09:14:00,
2013-11-02 02:19:00,46.4,39.2,30.03,NE,53,1.2,1.2,76,0.00,CLR,,0.00,WeatherDisplay:10.37,2013-11-02 09:19:00,
2013-11-02 02:24:00,46.2,39.4,30.03,NE,53,1.2,1.2,77,0.00,CLR,,0.00,WeatherDisplay:10.37,2013-11-02 09:24:00,
2013-11-02 02:29:00,45.9,38.8,30.03,NE,52,0.0,0.0,76,0.00,CLR,,0.00,WeatherDisplay:10.37,2013-11-02 09:29:00,
2013-11-02 02:34:00,45.8,39.7,30.03,ENE,78,2.3,2.3,79,0.00,CLR,,0.00,WeatherDisplay:10.37,2013-11-02 09:34:00,
2013-11-02 02:39:00,46.0,39.5,30.03,ENE,77,2.3,2.3,78,0.00,CLR,,0.00,WeatherDisplay:10.37,2013-11-02 09:39:00,
2013-11-02 02:44:00,46.1,39.3,30.02,ENE,77,1.2,0.0,77,0.00,CLR,,0.00,WeatherDisplay:10.37,2013-11-02 09:44:00,
2013-11-02 02:49:00,45.9,39.4,30.02,ENE,76,1.2,1.2,78,0.00,CLR,,0.00,WeatherDisplay:10.37,2013-11-02 09:49:00,
2013-11-02 02:54:00,45.9,39.8,30.02,ENE,75,1.2,1.2,79,0.00,CLR,,0.00,WeatherDisplay:10.37,2013-11-02 09:54:00,
2013-11-02 02:59:00,46.0,39.9,30.02,North,1,2.3,2.3,79,0.00,CLR,,0.00,WeatherDisplay:10.37,2013-11-02 09:59:00,
2013-11-02 03:04:00,46.1,39.9,30.02,North,360,1.2,0.0,79,0.00,CLR,,0.00,WeatherDisplay:10.37,2013-11-02 10:04:00,
2013-11-02 03:09:00,45.8,39.7,30.02,North,359,0.0,0.0,79,0.00,CLR,,0.00,WeatherDisplay:10.37,2013-11-02 10:09:00,
2013-11-02 03:14:00,45.4,39.3,30.02,North,358,0.0,0.0,79,0.00,CLR,,0.00,WeatherDisplay:10.37,2013-11-02 10:14:00,
2013-11-02 03:19:00,44.7,38.9,30.02,North,360,0.0,0.0,80,0.00,CLR,,0.00,WeatherDisplay:10.37,2013-11-02 10:19:00,
2013-11-02 03:24:00,44.5,38.7,30.02,North,358,2.3,2.3,80,0.00,CLR,,0.00,WeatherDisplay:10.37,2013-11-02 10:24:00,
2013-11-02 03:29:00,44.3,38.5,30.02,North,358,1.2,1.2,80,0.00,CLR,,0.00,WeatherDisplay:10.37,2013-11-02 10:29:00,
2013-11-02 03:34:00,44.1,38.6,30.01,North,358,0.0,0.0,81,0.00,CLR,,0.00,WeatherDisplay:10.37,2013-11-02 10:34:00,
2013-11-02 03:39:00,44.0,38.5,30.01,North,359,0.0,0.0,81,0.00,CLR,,0.00,WeatherDisplay:10.37,2013-11-02 10:39:00,
2013-11-02 03:44:00,44.1,38.6,30.01,NNW,333,2.3,2.3,81,0.00,CLR,,0.00,WeatherDisplay:10.37,2013-11-02 10:44:00,
2013-11-02 03:49:00,43.8,38.3,30.01,NNW,333,0.0,0.0,81,0.00,CLR,,0.00,WeatherDisplay:10.37,2013-11-02 10:49:00,
2013-11-02 03:54:00,43.6,38.5,30.01,NNW,333,0.0,0.0,82,0.00,CLR,,0.00,WeatherDisplay:10.37,2013-11-02 10:54:00,
2013-11-02 03:59:00,43.6,38.8,30.01,NNW,333,0.0,0.0,83,0.00,CLR,,0.00,WeatherDisplay:10.37,2013-11-02 10:59:00,
2013-11-02 04:04:00,44.0,39.2,30.01,NNW,333,1.2,1.2,83,0.00,CLR,,0.00,WeatherDisplay:10.37,2013-11-02 11:04:00,
2013-11-02 04:09:00,44.3,39.5,30.01,NNW,333,0.0,0.0,83,0.00,CLR,,0.00,WeatherDisplay:10.37,2013-11-02 11:09:00,
2013-11-02 04:14:00,43.9,38.8,30.01,North,356,1.2,1.2,82,0.00,CLR,,0.00,WeatherDisplay:10.37,2013-11-02 11:14:00,
2013-11-02 04:19:00,43.9,38.8,30.01,ENE,67,2.0,2.0,82,0.00,CLR,,0.00,WeatherDisplay:10.37,2013-11-02 11:19:00,
2013-11-02 04:24:00,43.6,38.8,30.01,ENE,71,2.3,2.3,83,0.00,CLR,,0.00,WeatherDisplay:10.37,2013-11-02 11:24:00,
2013-11-02 04:29:00,43.7,38.6,30.01,ENE,68,2.3,2.3,82,0.00,CLR,,0.00,WeatherDisplay:10.37,2013-11-02 11:29:00,
2013-11-02 04:34:00,43.6,38.8,30.01,ENE,65,1.2,1.2,83,0.00,CLR,,0.00,WeatherDisplay:10.37,2013-11-02 11:34:00,
2013-11-02 04:39:00,43.5,38.7,30.01,ENE,65,0.0,0.0,83,0.00,CLR,,0.00,WeatherDisplay:10.37,2013-11-02 11:39:00,
2013-11-02 04:44:00,43.1,38.3,30.01,ENE,65,1.2,1.2,83,0.00,CLR,,0.00,WeatherDisplay:10.37,2013-11-02 11:44:00,
2013-11-02 04:49:00,43.2,38.4,30.01,ENE,65,0.0,0.0,83,0.00,CLR,,0.00,WeatherDisplay:10.37,2013-11-02 11:49:00,
2013-11-02 04:54:00,43.3,38.8,30.01,ENE,65,0.0,0.0,84,0.00,CLR,,0.00,WeatherDisplay:10.37,2013-11-02 11:54:00,
2013-11-02 04:59:00,43.6,39.1,30.01,ENE,65,1.2,1.2,84,0.00,CLR,,0.00,WeatherDisplay:10.37,2013-11-02 11:59:00,
2013-11-02 05:04:00,43.6,39.1,30.01,ENE,65,0.0,0.0,84,0.00,CLR,,0.00,WeatherDisplay:10.37,2013-11-02 12:04:00,
2013-11-02 05:09:00,43.6,39.1,30.01,ENE,65,1.2,1.2,84,0.00,CLR,,0.00,WeatherDisplay:10.37,2013-11-02 12:09:00,
2013-11-02 05:14:00,44.0,39.5,30.01,ENE,65,1.2,0.0,84,0.00,CLR,,0.00,WeatherDisplay:10.37,2013-11-02 12:14:00,
2013-11-02 05:19:00,43.9,39.1,30.01,East,82,1.2,1.2,83,0.00,CLR,,0.00,WeatherDisplay:10.37,2013-11-02 12:19:00,
2013-11-02 05:24:00,43.9,39.4,30.01,ENE,70,3.5,3.5,84,0.00,CLR,,0.00,WeatherDisplay:10.37,2013-11-02 12:24:00,
2013-11-02 05:29:00,44.2,39.7,30.01,East,79,1.2,1.2,84,0.00,CLR,,0.00,WeatherDisplay:10.37,2013-11-02 12:29:00,
2013-11-02 05:34:00,44.3,39.5,30.01,East,79,0.0,0.0,83,0.00,CLR,,0.00,WeatherDisplay:10.37,2013-11-02 12:34:00,
2013-11-02 05:39:00,44.0,39.2,30.01,East,79,0.0,0.0,83,0.00,CLR,,0.00,WeatherDisplay:10.37,2013-11-02 12:39:00,
2013-11-02 05:44:00,43.7,38.9,30.01,East,79,0.0,0.0,83,0.00,CLR,,0.00,WeatherDisplay:10.37,2013-11-02 12:44:00,
2013-11-02 05:49:00,43.5,38.7,30.01,East,79,0.0,0.0,83,0.00,CLR,,0.00,WeatherDisplay:10.37,2013-11-02 12:49:00,
2013-11-02 05:54:00,43.1,38.3,30.01,East,79,0.0,0.0,83,0.00,CLR,,0.00,WeatherDisplay:10.37,2013-11-02 12:54:00,
2013-11-02 05:59:00,43.0,38.8,30.01,East,82,1.2,1.2,85,0.00,CLR,,0.00,WeatherDisplay:10.37,2013-11-02 12:59:00,
2013-11-02 06:04:00,42.8,38.6,30.01,SSW,201,1.2,1.2,85,0.00,CLR,,0.00,WeatherDisplay:10.37,2013-11-02 13:04:00,
2013-11-02 06:09:00,42.7,38.8,30.01,SW,224,1.2,0.0,86,0.00,CLR,,0.00,WeatherDisplay:10.37,2013-11-02 13:09:00,
2013-11-02 06:14:00,42.7,38.8,30.02,SW,224,0.0,0.0,86,0.00,CLR,,0.00,WeatherDisplay:10.37,2013-11-02 13:14:00,
2013-11-02 06:19:00,42.2,38.3,30.01,SW,224,1.2,1.2,86,0.00,CLR,,0.00,WeatherDisplay:10.37,2013-11-02 13:19:00,
2013-11-02 06:24:00,41.4,37.2,30.02,NNW,329,2.3,2.3,85,0.00,CLR,,0.00,WeatherDisplay:10.37,2013-11-02 13:24:00,
2013-11-02 06:29:00,40.6,36.1,30.02,NNW,339,2.3,2.3,84,0.00,CLR,,0.00,WeatherDisplay:10.37,2013-11-02 13:29:00,
2013-11-02 06:34:00,39.4,35.0,30.02,NNW,340,1.2,0.0,84,0.00,CLR,,0.00,WeatherDisplay:10.37,2013-11-02 13:34:00,
2013-11-02 06:39:00,39.3,35.8,30.02,NNW,340,1.2,1.2,87,0.00,CLR,,0.00,WeatherDisplay:10.37,2013-11-02 13:39:00,
2013-11-02 06:44:00,39.5,36.0,30.02,NNW,340,0.0,0.0,87,0.00,CLR,,0.00,WeatherDisplay:10.37,2013-11-02 13:44:00,
2013-11-02 06:49:00,39.5,36.0,30.02,NNW,340,1.2,0.0,87,0.00,CLR,,0.00,WeatherDisplay:10.37,2013-11-02 13:49:00,
2013-11-02 06:54:00,39.9,37.2,30.02,NNW,340,1.0,0.0,90,0.00,CLR,,0.00,WeatherDisplay:10.37,2013-11-02 13:54:00,
2013-11-02 06:59:00,40.3,37.3,30.02,West,276,1.2,1.2,89,0.00,CLR,,0.00,WeatherDisplay:10.37,2013-11-02 13:59:00,
2013-11-02 07:04:00,40.6,37.6,30.02,West,276,1.2,0.0,89,0.00,CLR,,0.00,WeatherDisplay:10.37,2013-11-02 14:04:00,
2013-11-02 07:09:00,40.0,36.4,30.03,West,276,0.0,0.0,87,0.00,CLR,,0.00,WeatherDisplay:10.37,2013-11-02 14:09:00,
2013-11-02 07:14:00,39.4,35.6,30.03,NNE,26,3.5,3.5,86,0.00,CLR,,0.00,WeatherDisplay:10.37,2013-11-02 14:14:00,
2013-11-02 07:19:00,38.5,35.0,30.03,NNW,338,1.2,0.0,87,0.00,CLR,,0.00,WeatherDisplay:10.37,2013-11-02 14:19:00,
2013-11-02 07:24:00,38.9,36.2,30.02,ENE,68,2.3,2.3,90,0.00,CLR,,0.00,WeatherDisplay:10.37,2013-11-02 14:24:00,
2013-11-02 07:29:00,39.6,36.6,30.02,ENE,76,0.0,0.0,89,0.00,CLR,,0.00,WeatherDisplay:10.37,2013-11-02 14:29:00,
2013-11-02 07:34:00,39.6,36.6,30.02,NNW,338,1.2,1.2,89,0.00,CLR,,0.00,WeatherDisplay:10.37,2013-11-02 14:34:00,
2013-11-02 07:39:00,40.0,37.0,30.02,SW,236,2.3,2.3,89,0.00,CLR,,0.00,WeatherDisplay:10.37,2013-11-02 14:39:00,
2013-11-02 07:44:00,40.3,37.6,30.02,WSW,245,1.2,1.2,90,0.00,CLR,,0.00,WeatherDisplay:10.37,2013-11-02 14:44:00,
2013-11-02 07:49:00,40.8,37.8,30.02,WSW,245,0.0,0.0,89,0.00,CLR,,0.00,WeatherDisplay:10.37,2013-11-02 14:49:00,
2013-11-02 07:54:00,41.0,38.0,30.02,WSW,248,0.0,0.0,89,0.00,CLR,,0.00,WeatherDisplay:10.37,2013-11-02 14:54:00,
2013-11-02 07:59:00,41.0,38.0,30.02,WSW,246,0.0,0.0,89,0.00,CLR,,0.00,WeatherDisplay:10.37,2013-11-02 14:59:00,
2013-11-02 08:04:00,39.9,35.8,30.02,SE,141,1.2,0.0,85,0.00,CLR,,0.00,WeatherDisplay:10.37,2013-11-02 15:04:00,
2013-11-02 08:09:00,39.3,36.0,30.01,SE,143,1.2,1.2,88,0.00,CLR,,0.00,WeatherDisplay:10.37,2013-11-02 15:09:00,
2013-11-02 08:14:00,39.7,36.7,30.01,SW,233,0.0,0.0,89,0.00,CLR,,0.00,WeatherDisplay:10.37,2013-11-02 15:14:00,
2013-11-02 08:19:00,40.2,37.2,30.02,NNW,338,2.3,2.3,89,0.00,CLR,,0.00,WeatherDisplay:10.37,2013-11-02 15:19:00,
2013-11-02 08:24:00,40.8,38.1,30.01,NNW,338,0.0,0.0,90,0.00,CLR,,0.00,WeatherDisplay:10.37,2013-11-02 15:24:00,
2013-11-02 08:29:00,41.2,37.9,30.02,NNW,345,1.2,1.2,88,0.00,CLR,,0.00,WeatherDisplay:10.37,2013-11-02 15:29:00,
2013-11-02 08:34:00,41.6,37.7,30.02,NE,52,2.3,2.3,86,0.00,CLR,,0.00,WeatherDisplay:10.37,2013-11-02 15:34:00,
2013-11-02 08:39:00,42.0,38.1,30.02,NNW,344,3.5,3.5,86,0.00,CLR,,0.00,WeatherDisplay:10.37,2013-11-02 15:39:00,
2013-11-02 08:44:00,42.6,38.7,30.02,NW,321,3.5,3.5,86,0.00,CLR,,0.00,WeatherDisplay:10.37,2013-11-02 15:44:00,
2013-11-02 08:49:00,43.5,39.3,30.03,NNE,23,2.3,2.3,85,0.00,CLR,,0.00,WeatherDisplay:10.37,2013-11-02 15:49:00,
2013-11-02 08:54:00,44.4,39.9,30.02,ENE,58,2.3,2.3,84,0.00,CLR,,0.00,WeatherDisplay:10.37,2013-11-02 15:54:00,
2013-11-02 08:59:00,45.2,40.3,30.02,ENE,69,1.2,1.2,83,0.00,CLR,,0.00,WeatherDisplay:10.37,2013-11-02 15:59:00,
2013-11-02 09:04:00,45.7,40.5,30.02,ENE,70,1.2,1.2,82,0.00,CLR,,0.00,WeatherDisplay:10.37,2013-11-02 16:04:00,
2013-11-02 09:09:00,46.1,40.9,30.02,NNW,338,0.0,0.0,82,0.00,CLR,,0.00,WeatherDisplay:10.37,2013-11-02 16:09:00,
2013-11-02 09:14:00,46.6,41.1,30.02,NNW,338,1.2,1.2,81,0.00,CLR,,0.00,WeatherDisplay:10.37,2013-11-02 16:14:00,
2013-11-02 09:19:00,47.1,41.6,30.02,NNW,331,2.3,2.3,81,0.00,CLR,,0.00,WeatherDisplay:10.37,2013-11-02 16:19:00,
2013-11-02 09:24:00,48.1,41.9,30.02,NNW,340,1.2,1.2,79,0.00,CLR,,0.00,WeatherDisplay:10.37,2013-11-02 16:24:00,
2013-11-02 09:29:00,48.8,42.6,30.01,NNW,338,1.2,1.2,79,0.00,CLR,,0.00,WeatherDisplay:10.37,2013-11-02 16:29:00,
2013-11-02 09:34:00,49.6,42.7,30.02,NNW,335,1.2,1.2,77,0.00,CLR,,0.00,WeatherDisplay:10.37,2013-11-02 16:34:00,
2013-11-02 09:39:00,50.4,43.1,30.01,NNW,336,0.0,0.0,76,0.00,CLR,,0.00,WeatherDisplay:10.37,2013-11-02 16:39:00,
2013-11-02 09:45:00,51.5,43.5,30.01,NE,56,3.5,3.5,74,0.00,CLR,,0.00,WeatherDisplay:10.37,2013-11-02 16:45:00,
2013-11-02 09:50:00,52.7,43.6,30.01,ENE,75,2.3,2.3,71,0.00,CLR,,0.00,WeatherDisplay:10.37,2013-11-02 16:50:00,
2013-11-02 09:55:00,53.5,43.6,30.01,NNE,27,3.5,3.5,69,0.00,CLR,,0.00,WeatherDisplay:10.37,2013-11-02 16:55:00,
2013-11-02 10:00:00,54.0,43.7,30.02,North,1,3.5,3.5,68,0.00,CLR,,0.00,WeatherDisplay:10.37,2013-11-02 17:00:00,
2013-11-02 10:05:00,54.9,43.7,30.02,NW,323,3.5,3.5,66,0.00,CLR,,0.00,WeatherDisplay:10.37,2013-11-02 17:05:00,
2013-11-02 10:10:00,55.7,44.1,30.02,NE,41,4.6,4.6,65,0.00,CLR,,0.00,WeatherDisplay:10.37,2013-11-02 17:10:00,
2013-11-02 10:15:00,56.6,43.7,30.02,NNE,16,3.5,3.5,62,0.00,CLR,,0.00,WeatherDisplay:10.37,2013-11-02 17:15:00,
2013-11-02 10:20:00,57.3,44.0,30.02,NNE,19,4.6,4.6,61,0.00,CLR,,0.00,WeatherDisplay:10.37,2013-11-02 17:20:00,
2013-11-02 10:25:00,57.8,44.4,30.01,NNW,342,3.5,3.5,61,0.00,CLR,,0.00,WeatherDisplay:10.37,2013-11-02 17:25:00,
2013-11-02 10:30:00,58.0,44.2,30.01,NNE,32,1.2,1.2,60,0.00,CLR,,0.00,WeatherDisplay:10.37,2013-11-02 17:30:00,
2013-11-02 10:35:00,58.5,44.2,30.01,ENE,70,3.0,3.0,59,0.00,CLR,,0.00,WeatherDisplay:10.37,2013-11-02 17:35:00,
2013-11-02 10:40:00,58.8,44.5,30.01,SSE,162,1.2,1.2,59,0.00,CLR,,0.00,WeatherDisplay:10.37,2013-11-02 17:40:00,
2013-11-02 10:45:00,59.7,44.4,30.01,South,173,1.2,0.0,57,0.00,CLR,,0.00,WeatherDisplay:10.37,2013-11-02 17:45:00,
2013-11-02 10:50:00,60.7,44.9,30.00,SW,232,0.0,0.0,56,0.00,CLR,,0.00,WeatherDisplay:10.37,2013-11-02 17:50:00,
2013-11-02 10:55:00,61.9,45.5,30.00,SSW,209,1.2,1.2,55,0.00,CLR,,0.00,WeatherDisplay:10.37,2013-11-02 17:55:00,
2013-11-02 11:00:00,63.0,45.1,30.00,South,177,2.3,2.3,52,0.00,CLR,,0.00,WeatherDisplay:10.37,2013-11-02 18:00:00,
2013-11-02 11:05:00,64.1,45.1,30.00,WSW,255,2.3,2.3,50,0.00,CLR,,0.00,WeatherDisplay:10.37,2013-11-02 18:05:00,
2013-11-02 11:10:00,65.1,44.9,30.00,SE,134,1.2,1.2,48,0.00,CLR,,0.00,WeatherDisplay:10.37,2013-11-02 18:10:00,
2013-11-02 11:15:00,65.6,45.4,30.00,NE,37,2.3,2.3,48,0.00,CLR,,0.00,WeatherDisplay:10.37,2013-11-02 18:15:00,
2013-11-02 11:20:00,66.1,44.7,30.00,South,181,2.3,2.3,46,0.00,CLR,,0.00,WeatherDisplay:10.37,2013-11-02 18:20:00,
2013-11-02 11:25:00,66.4,45.5,30.00,West,274,1.2,0.0,47,0.00,CLR,,0.00,WeatherDisplay:10.37,2013-11-02 18:25:00,
2013-11-02 11:30:00,66.8,44.8,29.99,WSW,252,1.2,1.2,45,0.00,CLR,,0.00,WeatherDisplay:10.37,2013-11-02 18:30:00,
2013-11-02 11:35:00,67.6,45.5,30.00,WSW,245,3.5,3.5,45,0.00,CLR,,0.00,WeatherDisplay:10.37,2013-11-02 18:35:00,
2013-11-02 11:40:00,68.0,45.3,29.99,SSW,210,2.3,2.3,44,0.00,CLR,,0.00,WeatherDisplay:10.37,2013-11-02 18:40:00,
2013-11-02 11:45:00,68.1,45.4,29.99,ENE,71,0.0,0.0,44,0.00,CLR,,0.00,WeatherDisplay:10.37,2013-11-02 18:45:00,
2013-11-02 11:50:00,68.5,45.7,29.99,West,264,3.5,3.5,44,0.00,CLR,,0.00,WeatherDisplay:10.37,2013-11-02 18:50:00,
2013-11-02 11:55:00,68.8,45.4,29.98,WSW,239,3.5,3.5,43,0.00,CLR,,0.00,WeatherDisplay:10.37,2013-11-02 18:55:00,
2013-11-02 12:00:00,69.0,45.6,29.98,West,269,1.2,1.2,43,0.00,CLR,,0.00,WeatherDisplay:10.37,2013-11-02 19:00:00,
2013-11-02 12:05:00,69.4,45.9,29.98,South,169,2.3,2.3,43,0.00,CLR,,0.00,WeatherDisplay:10.37,2013-11-02 19:05:00,
2013-11-02 12:10:00,70.1,46.6,29.98,SSE,167,4.0,4.0,43,0.00,CLR,,0.00,WeatherDisplay:10.37,2013-11-02 19:10:00,
2013-11-02 12:15:00,70.7,45.8,29.97,West,262,2.3,2.3,41,0.00,CLR,,0.00,WeatherDisplay:10.37,2013-11-02 19:15:00,
2013-11-02 12:20:00,71.7,46.1,29.97,SW,218,3.5,3.5,40,0.00,CLR,,0.00,WeatherDisplay:10.37,2013-11-02 19:20:00,
2013-11-02 12:25:00,72.6,46.9,29.97,South,172,2.3,2.3,40,0.00,CLR,,0.00,WeatherDisplay:10.37,2013-11-02 19:25:00,
2013-11-02 12:30:00,72.3,45.9,29.97,WSW,253,2.3,2.3,39,0.00,CLR,,0.00,WeatherDisplay:10.37,2013-11-02 19:30:00,
2013-11-02 12:35:00,72.2,46.5,29.97,SSE,158,1.2,1.2,40,0.00,CLR,,0.00,WeatherDisplay:10.37,2013-11-02 19:35:00,
2013-11-02 12:40:00,72.6,46.2,29.97,SW,236,3.5,3.5,39,0.00,CLR,,0.00,WeatherDisplay:10.37,2013-11-02 19:40:00,
2013-11-02 12:45:00,72.6,46.2,29.96,SSE,159,3.5,3.5,39,0.00,CLR,,0.00,WeatherDisplay:10.37,2013-11-02 19:45:00,
2013-11-02 12:50:00,72.5,46.1,29.96,WSW,249,3.5,3.5,39,0.00,CLR,,0.00,WeatherDisplay:10.37,2013-11-02 19:50:00,
2013-11-02 12:55:00,72.7,46.3,29.95,SE,130,2.3,2.3,39,0.00,CLR,,0.00,WeatherDisplay:10.37,2013-11-02 19:55:00,
2013-11-02 13:00:00,72.6,46.2,29.95,SSE,155,4.6,4.6,39,0.00,CLR,,0.00,WeatherDisplay:10.37,2013-11-02 20:00:00,
2013-11-02 13:05:00,72.8,46.4,29.95,SSW,208,3.5,3.5,39,0.00,CLR,,0.00,WeatherDisplay:10.37,2013-11-02 20:05:00,
2013-11-02 13:10:00,73.1,46.7,29.95,SW,214,3.5,3.5,39,0.00,CLR,,0.00,WeatherDisplay:10.37,2013-11-02 20:10:00,
2013-11-02 13:15:00,73.7,47.2,29.95,SSE,158,2.3,2.3,39,0.00,CLR,,0.00,WeatherDisplay:10.37,2013-11-02 20:15:00,
2013-11-02 13:20:00,73.8,47.3,29.94,SSW,197,4.0,4.0,39,0.00,CLR,,0.00,WeatherDisplay:10.37,2013-11-02 20:20:00,
2013-11-02 13:25:00,73.8,47.3,29.94,South,169,5.0,5.0,39,0.00,CLR,,0.00,WeatherDisplay:10.37,2013-11-02 20:25:00,
2013-11-02 13:30:00,73.3,47.5,29.94,SSE,147,2.3,2.3,40,0.00,CLR,,0.00,WeatherDisplay:10.37,2013-11-02 20:30:00,
2013-11-02 13:35:00,73.7,47.9,29.94,SE,143,4.6,4.6,40,0.00,CLR,,0.00,WeatherDisplay:10.37,2013-11-02 20:35:00,
2013-11-02 13:40:00,73.3,47.5,29.93,SE,140,3.5,3.5,40,0.00,CLR,,0.00,WeatherDisplay:10.37,2013-11-02 20:40:00,
2013-11-02 13:45:00,73.3,47.5,29.93,SSE,162,4.6,4.6,40,0.00,CLR,,0.00,WeatherDisplay:10.37,2013-11-02 20:45:00,
2013-11-02 13:50:00,73.1,48.6,29.93,ESE,116,4.6,4.6,42,0.00,CLR,,0.00,WeatherDisplay:10.37,2013-11-02 20:50:00,
2013-11-02 13:55:00,73.2,48.7,29.93,SSW,205,3.5,3.5,42,0.00,CLR,,0.00,WeatherDisplay:10.37,2013-11-02 20:55:00,
2013-11-02 14:00:00,73.4,48.3,29.92,SE,124,3.5,3.5,41,0.00,CLR,,0.00,WeatherDisplay:10.37,2013-11-02 21:00:00,
2013-11-02 14:05:00,72.7,48.9,29.92,ESE,121,2.3,2.3,43,0.00,CLR,,0.00,WeatherDisplay:10.37,2013-11-02 21:05:00,
2013-11-02 14:10:00,72.3,48.5,29.92,South,188,3.5,3.5,43,0.00,CLR,,0.00,WeatherDisplay:10.37,2013-11-02 21:10:00,
2013-11-02 14:15:00,72.4,49.3,29.92,SSE,148,5.8,5.8,44,0.00,CLR,,0.00,WeatherDisplay:10.37,2013-11-02 21:15:00,
2013-11-02 14:20:00,72.2,49.1,29.92,SE,142,5.8,5.8,44,0.00,CLR,,0.00,WeatherDisplay:10.37,2013-11-02 21:20:00,
2013-11-02 14:25:00,72.1,49.6,29.92,South,169,5.0,5.0,45,0.00,CLR,,0.00,WeatherDisplay:10.37,2013-11-02 21:25:00,
2013-11-02 14:30:00,72.3,50.4,29.92,SE,146,5.0,5.0,46,0.00,CLR,,0.00,WeatherDisplay:10.37,2013-11-02 21:30:00,
2013-11-02 14:35:00,72.2,50.3,29.91,South,169,8.1,8.1,46,0.00,CLR,,0.00,WeatherDisplay:10.37,2013-11-02 21:35:00,
2013-11-02 14:40:00,72.2,50.8,29.91,South,173,8.1,8.1,47,0.00,CLR,,0.00,WeatherDisplay:10.37,2013-11-02 21:40:00,
2013-11-02 14:45:00,72.4,51.0,29.91,ESE,118,6.9,6.9,47,0.00,CLR,,0.00,WeatherDisplay:10.37,2013-11-02 21:45:00,
2013-11-02 14:50:00,72.4,51.0,29.91,SE,131,5.8,5.8,47,0.00,CLR,,0.00,WeatherDisplay:10.37,2013-11-02 21:50:00,
2013-11-02 14:55:00,72.7,50.7,29.91,ESE,109,4.0,4.0,46,0.00,CLR,,0.00,WeatherDisplay:10.37,2013-11-02 21:55:00,
2013-11-02 15:00:00,72.7,50.7,29.91,SSE,150,6.9,6.9,46,0.00,CLR,,0.00,WeatherDisplay:10.37,2013-11-02 22:00:00,
2013-11-02 15:05:00,73.0,50.4,29.91,SSE,150,5.0,5.0,45,0.00,CLR,,0.00,WeatherDisplay:10.37,2013-11-02 22:05:00,
2013-11-02 15:10:00,73.3,51.3,29.91,SSW,203,2.3,2.3,46,0.00,CLR,,0.00,WeatherDisplay:10.37,2013-11-02 22:10:00,
2013-11-02 15:15:00,73.4,50.8,29.91,SE,124,4.0,4.0,45,0.00,CLR,,0.00,WeatherDisplay:10.37,2013-11-02 22:15:00,
2013-11-02 15:20:00,72.8,50.8,29.91,South,188,5.8,5.8,46,0.00,CLR,,0.00,WeatherDisplay:10.37,2013-11-02 22:20:00,
2013-11-02 15:25:00,72.6,50.6,29.91,ESE,118,4.6,4.6,46,0.00,CLR,,0.00,WeatherDisplay:10.37,2013-11-02 22:25:00,
2013-11-02 15:30:00,72.7,50.7,29.91,ESE,113,3.5,3.5,46,0.00,CLR,,0.00,WeatherDisplay:10.37,2013-11-02 22:30:00,
2013-11-02 15:35:00,72.6,50.6,29.91,SE,134,4.6,4.6,46,0.00,CLR,,0.00,WeatherDisplay:10.37,2013-11-02 22:35:00,
2013-11-02 15:40:00,72.8,50.2,29.90,South,176,4.6,4.6,45,0.00,CLR,,0.00,WeatherDisplay:10.37,2013-11-02 22:40:00,
2013-11-02 15:45:00,73.0,50.4,29.90,SSE,167,4.6,4.6,45,0.00,CLR,,0.00,WeatherDisplay:10.37,2013-11-02 22:45:00,
2013-11-02 15:50:00,73.0,50.4,29.90,SSW,210,9.2,9.2,45,0.00,CLR,,0.00,WeatherDisplay:10.37,2013-11-02 22:50:00,
2013-11-02 15:55:00,73.2,50.6,29.90,SSE,160,4.6,4.6,45,0.00,CLR,,0.00,WeatherDisplay:10.37,2013-11-02 22:55:00,
2013-11-02 16:00:00,73.1,50.5,29.90,South,174,5.0,5.0,45,0.00,CLR,,0.00,WeatherDisplay:10.37,2013-11-02 23:00:00,
2013-11-02 16:05:00,73.0,50.4,29.90,SE,138,3.5,3.5,45,0.00,CLR,,0.00,WeatherDisplay:10.37,2013-11-02 23:05:00,
2013-11-02 16:10:00,73.6,50.9,29.90,SSE,164,4.6,4.6,45,0.00,CLR,,0.00,WeatherDisplay:10.37,2013-11-02 23:10:00,
2013-11-02 16:15:00,74.0,50.7,29.90,SSE,150,1.2,1.2,44,0.00,CLR,,0.00,WeatherDisplay:10.37,2013-11-02 23:15:00,
2013-11-02 16:20:00,73.7,51.0,29.90,SE,146,3.5,3.5,45,0.00,CLR,,0.00,WeatherDisplay:10.37,2013-11-02 23:20:00,
2013-11-02 16:25:00,73.7,50.4,29.89,SSE,168,8.1,8.1,44,0.00,CLR,,0.00,WeatherDisplay:10.37,2013-11-02 23:25:00,
2013-11-02 16:30:00,73.1,51.1,29.89,SE,136,3.5,3.5,46,0.00,CLR,,0.00,WeatherDisplay:10.37,2013-11-02 23:30:00,
2013-11-02 16:35:00,73.1,51.1,29.89,South,169,3.5,3.5,46,0.00,CLR,,0.00,WeatherDisplay:10.37,2013-11-02 23:35:00,
2013-11-02 16:40:00,73.5,50.9,29.89,SSW,212,5.8,5.8,45,0.00,CLR,,0.00,WeatherDisplay:10.37,2013-11-02 23:40:00,
2013-11-02 16:45:00,73.7,50.4,29.89,SSE,150,2.3,2.3,44,0.00,CLR,,0.00,WeatherDisplay:10.37,2013-11-02 23:45:00,
2013-11-02 16:50:00,73.7,50.4,29.89,SE,142,2.3,2.3,44,0.00,CLR,,0.00,WeatherDisplay:10.37,2013-11-02 23:50:00,
2013-11-02 16:55:00,73.2,51.2,29.89,South,170,5.0,5.0,46,0.00,CLR,,0.00,WeatherDisplay:10.37,2013-11-02 23:55:00,
2013-11-02 17:00:00,72.6,51.2,29.89,SSE,151,6.9,6.9,47,0.00,CLR,,0.00,WeatherDisplay:10.37,2013-11-03 00:00:00,
2013-11-02 17:05:00,72.2,52.0,29.89,SE,139,3.5,3.5,49,0.00,CLR,,0.00,WeatherDisplay:10.37,2013-11-03 00:05:00,
2013-11-02 17:10:00,71.7,51.5,29.88,ESE,109,2.3,2.3,49,0.00,CLR,,0.00,WeatherDisplay:10.37,2013-11-03 00:10:00,
2013-11-02 17:15:00,71.5,51.9,29.88,SE,136,3.5,3.5,50,0.00,CLR,,0.00,WeatherDisplay:10.37,2013-11-03 00:15:00,
2013-11-02 17:20:00,71.3,51.7,29.88,SE,124,3.5,3.5,50,0.00,CLR,,0.00,WeatherDisplay:10.37,2013-11-03 00:20:00,
2013-11-02 17:25:00,71.0,51.4,29.88,South,183,3.5,3.5,50,0.00,CLR,,0.00,WeatherDisplay:10.37,2013-11-03 00:25:00,
2013-11-02 17:30:00,70.9,51.9,29.88,SSE,150,2.0,2.0,51,0.00,CLR,,0.00,WeatherDisplay:10.37,2013-11-03 00:30:00,
2013-11-02 17:35:00,70.6,51.6,29.88,SE,145,3.5,3.5,51,0.00,CLR,,0.00,WeatherDisplay:10.37,2013-11-03 00:35:00,
2013-11-02 17:40:00,70.3,51.8,29.88,WSW,243,2.3,2.3,52,0.00,CLR,,0.00,WeatherDisplay:10.37,2013-11-03 00:40:00,
2013-11-02 17:45:00,69.9,52.0,29.88,SW,218,2.3,2.3,53,0.00,CLR,,0.00,WeatherDisplay:10.37,2013-11-03 00:45:00,
2013-11-02 17:50:00,69.4,52.0,29.88,SSW,201,2.3,2.3,54,0.00,CLR,,0.00,WeatherDisplay:10.37,2013-11-03 00:50:00,
2013-11-02 17:55:00,68.8,52.0,29.88,WSW,242,3.5,3.5,55,0.00,CLR,,0.00,WeatherDisplay:10.37,2013-11-03 00:55:00,
2013-11-02 18:00:00,68.2,52.4,29.88,WSW,242,0.0,0.0,57,0.00,CLR,,0.00,WeatherDisplay:10.37,2013-11-03 01:00:00,
2013-11-02 18:05:00,67.6,51.8,29.88,WSW,248,3.5,3.5,57,0.00,CLR,,0.00,WeatherDisplay:10.37,2013-11-03 01:05:00,
2013-11-02 18:10:00,67.3,51.5,29.88,South,174,0.0,0.0,57,0.00,CLR,,0.00,WeatherDisplay:10.37,2013-11-03 01:10:00,
2013-11-02 18:15:00,66.8,51.5,29.88,WSW,242,2.3,2.3,58,0.00,CLR,,0.00,WeatherDisplay:10.37,2013-11-03 01:15:00,
2013-11-02 18:20:00,66.0,51.7,29.88,South,169,3.5,3.5,60,0.00,CLR,,0.00,WeatherDisplay:10.37,2013-11-03 01:20:00,
2013-11-02 18:25:00,65.6,51.8,29.88,SSE,153,2.3,2.3,61,0.00,CLR,,0.00,WeatherDisplay:10.37,2013-11-03 01:25:00,
2013-11-02 18:30:00,65.5,52.1,29.88,West,263,4.6,4.6,62,0.00,CLR,,0.00,WeatherDisplay:10.37,2013-11-03 01:30:00,
2013-11-02 18:35:00,65.5,52.6,29.88,South,173,9.2,9.2,63,0.00,CLR,,0.00,WeatherDisplay:10.37,2013-11-03 01:35:00,
2013-11-02 18:40:00,65.7,52.8,29.88,SSE,153,11.5,11.5,63,0.00,CLR,,0.00,WeatherDisplay:10.37,2013-11-03 01:40:00,
2013-11-02 18:45:00,65.7,52.8,29.88,SSW,211,5.0,5.0,63,0.00,CLR,,0.00,WeatherDisplay:10.37,2013-11-03 01:45:00,
2013-11-02 18:50:00,65.3,52.8,29.88,SSE,148,4.0,4.0,64,0.00,CLR,,0.00,WeatherDisplay:10.37,2013-11-03 01:50:00,
2013-11-02 18:55:00,64.9,52.8,29.88,South,187,3.5,3.5,65,0.00,CLR,,0.00,WeatherDisplay:10.37,2013-11-03 01:55:00,
2013-11-02 19:00:00,64.4,52.8,29.89,SW,214,3.5,3.5,66,0.00,CLR,,0.00,WeatherDisplay:10.37,2013-11-03 02:00:00,
2013-11-02 19:05:00,63.9,52.7,29.89,SSE,165,2.3,2.3,67,0.00,CLR,,0.00,WeatherDisplay:10.37,2013-11-03 02:05:00,
2013-11-02 19:10:00,63.4,52.7,29.89,SW,235,3.5,3.5,68,0.00,CLR,,0.00,WeatherDisplay:10.37,2013-11-03 02:10:00,
2013-11-02 19:15:00,62.9,52.6,29.90,SSE,155,2.3,2.3,69,0.00,CLR,,0.00,WeatherDisplay:10.37,2013-11-03 02:15:00,
2013-11-02 19:20:00,62.4,52.1,29.90,South,190,2.3,2.3,69,0.00,CLR,,0.00,WeatherDisplay:10.37,2013-11-03 02:20:00,
2013-11-02 19:25:00,62.0,52.1,29.90,WSW,243,1.2,1.2,70,0.00,CLR,,0.00,WeatherDisplay:10.37,2013-11-03 02:25:00,
2013-11-02 19:30:00,61.5,52.0,29.90,WSW,243,1.2,1.2,71,0.00,CLR,,0.00,WeatherDisplay:10.37,2013-11-03 02:30:00,
2013-11-02 19:35:00,61.3,52.2,29.90,WSW,238,1.2,1.2,72,0.00,CLR,,0.00,WeatherDisplay:10.37,2013-11-03 02:35:00,
2013-11-02 19:40:00,60.9,52.2,29.90,WSW,244,2.3,2.3,73,0.00,CLR,,0.00,WeatherDisplay:10.37,2013-11-03 02:40:00,
2013-11-02 19:45:00,60.4,52.1,29.90,WSW,248,0.0,0.0,74,0.00,CLR,,0.00,WeatherDisplay:10.37,2013-11-03 02:45:00,
2013-11-02 19:50:00,59.8,51.5,29.90,SW,221,1.2,1.2,74,0.00,CLR,,0.00,WeatherDisplay:10.37,2013-11-03 02:50:00,
2013-11-02 19:55:00,59.2,51.3,29.90,SSW,193,1.2,0.0,75,0.00,CLR,,0.00,WeatherDisplay:10.37,2013-11-03 02:55:00,
2013-11-02 20:00:00,57.6,49.4,29.90,North,11,1.2,1.2,74,0.00,CLR,,0.00,WeatherDisplay:10.37,2013-11-03 03:00:00,
2013-11-02 20:05:00,56.7,49.9,29.90,North,11,0.0,0.0,78,0.00,CLR,,0.00,WeatherDisplay:10.37,2013-11-03 03:05:00,
2013-11-02 20:10:00,56.3,50.2,29.90,North,11,0.0,0.0,80,0.00,CLR,,0.00,WeatherDisplay:10.37,2013-11-03 03:10:00,
2013-11-02 20:15:00,56.0,50.3,29.91,North,11,0.0,0.0,81,0.00,CLR,,0.00,WeatherDisplay:10.37,2013-11-03 03:15:00,
2013-11-02 20:20:00,55.2,48.8,29.91,North,11,2.3,2.3,79,0.00,CLR,,0.00,WeatherDisplay:10.37,2013-11-03 03:20:00,
2013-11-02 20:25:00,54.4,48.4,29.91,North,11,2.3,2.3,80,0.00,CLR,,0.00,WeatherDisplay:10.37,2013-11-03 03:25:00,
2013-11-02 20:30:00,54.1,48.7,29.91,North,9,0.0,0.0,82,0.00,CLR,,0.00,WeatherDisplay:10.37,2013-11-03 03:30:00,
2013-11-02 20:35:00,53.9,48.5,29.91,North,11,0.0,0.0,82,0.00,CLR,,0.00,WeatherDisplay:10.37,2013-11-03 03:35:00,
2013-11-02 20:40:00,53.8,48.8,29.91,NNE,13,0.0,0.0,83,0.00,CLR,,0.00,WeatherDisplay:10.37,2013-11-03 03:40:00,
2013-11-02 20:45:00,53.6,48.6,29.91,NNE,12,0.0,0.0,83,0.00,CLR,,0.00,WeatherDisplay:10.37,2013-11-03 03:45:00,
2013-11-02 20:50:00,53.5,49.1,29.91,NNE,12,0.0,0.0,85,0.00,CLR,,0.00,WeatherDisplay:10.37,2013-11-03 03:50:00,
2013-11-02 20:55:00,53.4,48.4,29.91,SW,229,0.0,0.0,83,0.00,CLR,,0.00,WeatherDisplay:10.37,2013-11-03 03:55:00,
2013-11-02 21:00:00,53.4,49.0,29.91,WSW,245,1.2,1.2,85,0.00,CLR,,0.00,WeatherDisplay:10.37,2013-11-03 04:00:00,
2013-11-02 21:01:00,53.5,49.1,29.91,WSW,246,1.2,1.2,85,0.00,CLR,,0.00,WeatherDisplay:10.37,2013-11-03 04:01:00,
2013-11-02 21:02:00,53.5,49.1,29.91,WSW,246,1.2,1.2,85,0.00,CLR,,0.00,WeatherDisplay:10.37,2013-11-03 04:02:00,
2013-11-02 21:07:00,53.5,48.8,29.91,WSW,249,1.0,1.0,84,0.00,CLR,,0.00,WeatherDisplay:10.37,2013-11-03 04:07:00,
2013-11-02 21:09:00,53.4,49.0,29.91,WSW,245,1.2,1.2,85,0.00,CLR,,0.00,WeatherDisplay:10.37,2013-11-03 04:09:00,
2013-11-02 21:14:00,53.4,48.7,29.91,WSW,240,0.0,0.0,84,0.00,CLR,,0.00,WeatherDisplay:10.37,2013-11-03 04:14:00,
2013-11-02 21:19:00,52.2,46.2,29.91,WSW,240,1.2,1.2,80,0.00,CLR,,0.00,WeatherDisplay:10.37,2013-11-03 04:19:00,
2013-11-02 21:24:00,51.2,46.2,29.92,WSW,241,0.0,0.0,83,0.00,CLR,,0.00,WeatherDisplay:10.37,2013-11-03 04:24:00,
2013-11-02 21:29:00,50.4,45.7,29.92,WSW,240,0.0,0.0,84,0.00,CLR,,0.00,WeatherDisplay:10.37,2013-11-03 04:29:00,
2013-11-02 21:34:00,50.3,46.3,29.92,WSW,240,0.0,0.0,86,0.00,CLR,,0.00,WeatherDisplay:10.37,2013-11-03 04:34:00,
2013-11-02 21:39:00,50.3,46.6,29.92,WSW,240,0.0,0.0,87,0.00,CLR,,0.00,WeatherDisplay:10.37,2013-11-03 04:39:00,
2013-11-02 21:44:00,50.4,47.0,29.92,WSW,240,0.0,0.0,88,0.00,CLR,,0.00,WeatherDisplay:10.37,2013-11-03 04:44:00,
2013-11-02 21:49:00,50.7,47.3,29.92,WSW,245,0.0,0.0,88,0.00,CLR,,0.00,WeatherDisplay:10.37,2013-11-03 04:49:00,
2013-11-02 21:54:00,50.8,46.8,29.93,North,349,1.2,1.7,86,0.00,CLR,,0.00,WeatherDisplay:10.37,2013-11-03 04:54:00,
2013-11-02 21:59:00,51.0,46.6,29.93,NNW,347,1.2,1.2,85,0.00,CLR,,0.00,WeatherDisplay:10.37,2013-11-03 04:59:00,
2013-11-02 22:04:00,50.9,45.3,29.93,North,359,1.2,1.2,81,0.00,CLR,,0.00,WeatherDisplay:10.37,2013-11-03 05:04:00,
2013-11-02 22:09:00,50.6,46.3,29.93,South,172,2.3,2.3,85,0.00,CLR,,0.00,WeatherDisplay:10.37,2013-11-03 05:09:00,
2013-11-02 22:14:00,51.0,47.0,29.93,SE,145,1.2,1.2,86,0.00,CLR,,0.00,WeatherDisplay:10.37,2013-11-03 05:14:00,
2013-11-02 22:19:00,51.6,46.6,29.94,SSW,206,2.3,2.3,83,0.00,CLR,,0.00,WeatherDisplay:10.37,2013-11-03 05:19:00,
2013-11-02 22:24:00,52.1,46.8,29.94,WNW,287,1.2,1.2,82,0.00,CLR,,0.00,WeatherDisplay:10.37,2013-11-03 05:24:00,
2013-11-02 22:29:00,52.9,46.9,29.94,SW,229,1.2,0.0,80,0.00,CLR,,0.00,WeatherDisplay:10.37,2013-11-03 05:29:00,
2013-11-02 22:34:00,53.2,46.2,29.94,SW,229,0.0,0.0,77,0.00,CLR,,0.00,WeatherDisplay:10.37,2013-11-03 05:34:00,
2013-11-02 22:39:00,53.7,46.3,29.94,NW,307,3.5,3.5,76,0.00,CLR,,0.00,WeatherDisplay:10.37,2013-11-03 05:39:00,
2013-11-02 22:44:00,55.1,46.2,29.94,NW,319,5.8,5.8,72,0.00,CLR,,0.00,WeatherDisplay:10.37,2013-11-03 05:44:00,
2013-11-02 22:49:00,55.5,45.9,29.94,NW,316,3.5,3.5,70,0.00,CLR,,0.00,WeatherDisplay:10.37,2013-11-03 05:49:00,
2013-11-02 22:54:00,56.1,45.7,29.95,NW,316,3.5,3.5,68,0.00,CLR,,0.00,WeatherDisplay:10.37,2013-11-03 05:54:00,
2013-11-02 22:59:00,56.3,45.5,29.95,NNE,30,4.6,4.6,67,0.00,CLR,,0.00,WeatherDisplay:10.37,2013-11-03 05:59:00,
2013-11-02 23:04:00,54.2,45.0,29.95,North,359,1.2,1.2,71,0.00,CLR,,0.00,WeatherDisplay:10.37,2013-11-03 06:04:00,
2013-11-02 23:09:00,53.2,44.8,29.95,ENE,60,2.3,2.3,73,0.00,CLR,,0.00,WeatherDisplay:10.37,2013-11-03 06:09:00,
2013-11-02 23:14:00,52.8,44.7,29.95,SW,221,2.3,2.3,74,0.00,CLR,,0.00,WeatherDisplay:10.37,2013-11-03 06:14:00,
2013-11-02 23:19:00,52.6,44.5,29.96,NW,319,3.5,3.5,74,0.00,CLR,,0.00,WeatherDisplay:10.37,2013-11-03 06:19:00,
2013-11-02 23:24:00,52.9,44.5,29.96,NNW,331,2.3,2.3,73,0.00,CLR,,0.00,WeatherDisplay:10.37,2013-11-03 06:24:00,
2013-11-02 23:29:00,52.3,43.9,29.96,ENE,71,2.3,2.3,73,0.00,CLR,,0.00,WeatherDisplay:10.37,2013-11-03 06:29:00,
2013-11-02 23:34:00,51.8,44.1,29.96,NE,37,1.2,1.2,75,0.00,CLR,,0.00,WeatherDisplay:10.37,2013-11-03 06:34:00,
2013-11-02 23:39:00,52.1,44.1,29.96,NW,311,3.5,3.5,74,0.00,CLR,,0.00,WeatherDisplay:10.37,2013-11-03 06:39:00,
2013-11-02 23:44:00,52.6,44.2,29.96,NW,318,2.3,2.3,73,0.00,CLR,,0.00,WeatherDisplay:10.37,2013-11-03 06:44:00,
2013-11-02 23:49:00,52.5,43.7,29.96,NW,315,0.0,0.0,72,0.00,CLR,,0.00,WeatherDisplay:10.37,2013-11-03 06:49:00,
2013-11-02 23:54:00,52.0,43.6,29.97,South,181,0.0,0.0,73,0.00,CLR,,0.00,WeatherDisplay:10.37,2013-11-03 06:54:00,
2013-11-02 23:59:00,51.4,43.4,29.97,South,182,0.0,0.0,74,0.00,CLR,,0.00,WeatherDisplay:10.37,2013-11-03 06:59:00,